Terminal Aerodrome Forecast
Issued by NWS

Home | Current Version | Previous Version | Text Only | Print | Product List | Glossary On
Versions: 1 2 3 4 5 6 7 8 9 10 11 12 13 14 15 16 17 18 19 20 21 22 23 24 25 26 27 28 29 30
000
FTUS43 KDVN 110500
TAFCID
TAF
KCID 110520Z 1106/1206 16005KT P6SM BKN250
     FM111000 15008KT P6SM BKN120
     FM111500 15013KT P6SM SCT030 OVC080
     FM120200 15006KT P6SM OVC080 PROB30 1202/1206 4SM TSRA BR
      OVC035CB=

USA.gov is the U.S. government's official web portal to all federal, state and local government web resources and services.